Time;durP1;ratioP1;P1;durP2;ratioP2;P2;SDS_P1;SDS_P2;PMS_P1;PMS_P2;Temp;Humidity;BMP_temperature;BMP_pressure;BME280_temperature;BME280_humidity;BME280_pressure;Samples;Min_cycle;Max_cycle;Signal;HPM_P1;HPM_P2
2023/12/23 00:01:21;;;;;;;2.43;1.50;;;9.90;98.00;;;;;;4981389;28;20477;-89
2023/12/23 00:03:48;;;;;;;3.53;1.40;;;9.80;98.00;;;;;;4979523;28;20920;-89
2023/12/23 00:06:16;;;;;;;2.93;1.90;;;9.80;98.00;;;;;;4978288;28;20897;-89
2023/12/23 00:08:43;;;;;;;1.90;1.47;;;9.80;98.00;;;;;;4978995;28;20487;-89
2023/12/23 00:11:12;;;;;;;1.60;1.40;;;9.80;98.00;;;;;;4980070;28;20901;-89
2023/12/23 00:13:39;;;;;;;3.50;1.50;;;9.80;98.00;;;;;;4982468;28;20439;-89
2023/12/23 00:16:06;;;;;;;1.83;1.43;;;9.70;98.00;;;;;;4981069;28;20459;-89
2023/12/23 00:18:33;;;;;;;1.90;1.20;;;9.80;98.00;;;;;;4989006;28;20471;-87
2023/12/23 00:21:01;;;;;;;2.83;1.43;;;9.80;98.00;;;;;;4986891;28;20469;-87
2023/12/23 00:23:29;;;;;;;2.40;1.50;;;9.80;98.00;;;;;;4986047;28;20458;-88
2023/12/23 00:25:55;;;;;;;1.40;1.30;;;9.80;98.00;;;;;;4983432;28;20544;-87
2023/12/23 00:28:24;;;;;;;3.80;1.70;;;9.80;98.00;;;;;;4979416;28;20457;-87
2023/12/23 00:30:51;;;;;;;2.97;1.70;;;9.80;98.00;;;;;;4978553;28;20475;-88
2023/12/23 00:33:18;;;;;;;2.83;1.60;;;9.70;98.00;;;;;;4977459;28;20460;-88
2023/12/23 00:35:48;;;;;;;2.00;1.50;;;9.60;98.00;;;;;;4977232;28;20776;-88
2023/12/23 00:38:15;;;;;;;11.23;2.00;;;9.50;98.00;;;;;;4982575;28;20532;-87
2023/12/23 00:40:42;;;;;;;8.17;1.40;;;9.30;98.00;;;;;;4978980;28;20466;-87
2023/12/23 00:43:09;;;;;;;1.97;1.47;;;9.30;98.00;;;;;;4977885;28;20495;-88
2023/12/23 00:45:38;;;;;;;3.87;1.60;;;9.30;98.00;;;;;;4978479;28;20489;-88
2023/12/23 00:48:05;;;;;;;1.73;1.40;;;9.30;98.00;;;;;;4979059;28;20984;-88
2023/12/23 00:50:34;;;;;;;3.03;1.60;;;9.30;98.00;;;;;;4979113;28;20455;-88
2023/12/23 00:53:02;;;;;;;3.47;1.60;;;9.30;98.00;;;;;;4978569;28;20574;-88
2023/12/23 00:55:29;;;;;;;4.13;1.40;;;9.20;98.00;;;;;;4981684;28;20468;-88
2023/12/23 00:57:56;;;;;;;1.60;1.50;;;9.20;98.00;;;;;;4984811;28;20633;-88
2023/12/23 01:00:24;;;;;;;2.33;1.50;;;9.20;98.00;;;;;;4980705;28;20507;-88
2023/12/23 01:02:52;;;;;;;5.90;1.90;;;9.10;98.00;;;;;;4977466;28;20492;-88
2023/12/23 01:05:20;;;;;;;3.50;1.50;;;9.00;98.00;;;;;;4976580;28;20830;-88
2023/12/23 01:07:47;;;;;;;2.03;1.57;;;9.00;98.00;;;;;;4976849;28;20459;-89
2023/12/23 01:10:14;;;;;;;3.10;1.40;;;8.90;98.00;;;;;;4977075;28;20966;-87
2023/12/23 01:12:41;;;;;;;3.23;1.33;;;8.90;98.00;;;;;;4977193;28;21043;-88
2023/12/23 01:15:09;;;;;;;2.60;1.50;;;8.80;98.00;;;;;;4977827;28;20463;-87
2023/12/23 01:17:36;;;;;;;2.27;1.50;;;8.80;98.00;;;;;;4976894;28;20977;-87
2023/12/23 01:20:06;;;;;;;3.60;1.57;;;8.70;98.00;;;;;;4982900;28;20466;-88
2023/12/23 01:22:33;;;;;;;2.47;1.33;;;8.70;98.00;;;;;;4985442;28;20485;-87
2023/12/23 01:25:00;;;;;;;2.50;1.77;;;8.80;98.00;;;;;;4985992;28;20995;-87
2023/12/23 01:27:27;;;;;;;2.00;1.60;;;8.70;98.00;;;;;;4983548;28;20858;-87
2023/12/23 01:29:55;;;;;;;2.63;1.50;;;8.70;98.00;;;;;;4984766;28;20462;-88
2023/12/23 01:32:22;;;;;;;3.00;1.57;;;8.80;98.00;;;;;;4986758;28;20471;-88
2023/12/23 01:34:49;;;;;;;1.80;1.50;;;8.80;98.00;;;;;;4983937;28;20538;-88
2023/12/23 01:37:18;;;;;;;5.73;1.50;;;8.80;98.00;;;;;;4985027;28;20456;-88
2023/12/23 01:39:45;;;;;;;1.60;1.40;;;8.80;98.00;;;;;;4987628;28;20454;-87
2023/12/23 01:42:12;;;;;;;2.50;1.20;;;8.90;98.00;;;;;;4989428;28;20854;-88
2023/12/23 01:44:39;;;;;;;2.63;1.20;;;9.00;98.00;;;;;;4998134;28;20488;-87
2023/12/23 01:47:07;;;;;;;2.10;1.50;;;9.00;98.00;;;;;;4990029;28;20471;-87
2023/12/23 01:49:35;;;;;;;2.03;1.40;;;9.10;98.00;;;;;;4981813;28;20473;-87
2023/12/23 01:52:03;;;;;;;4.60;1.40;;;9.00;98.00;;;;;;4979411;28;20477;-87
2023/12/23 01:54:32;;;;;;;2.40;1.33;;;9.00;98.00;;;;;;4980309;28;20530;-88
2023/12/23 01:57:00;;;;;;;4.60;1.20;;;9.10;98.00;;;;;;4980175;28;20462;-88
2023/12/23 01:59:27;;;;;;;5.73;1.70;;;9.10;98.00;;;;;;4979003;28;20489;-88
2023/12/23 02:01:56;;;;;;;5.27;1.87;;;9.10;98.00;;;;;;4979474;28;20493;-88
2023/12/23 02:04:24;;;;;;;3.50;1.40;;;9.10;98.00;;;;;;4980172;28;20493;-88
2023/12/23 02:06:51;;;;;;;3.67;1.80;;;9.20;98.00;;;;;;4977932;28;20470;-88
2023/12/23 02:09:18;;;;;;;1.70;1.40;;;9.10;98.00;;;;;;4979272;28;20966;-88
2023/12/23 02:12:06;;;;;;;1.67;1.37;;;9.00;98.00;;;;;;4979447;28;20562;-88
2023/12/23 02:14:41;;;;;;;2.90;1.50;;;9.10;98.00;;;;;;4981120;28;20457;-88
2023/12/23 02:17:09;;;;;;;2.63;1.70;;;9.10;98.00;;;;;;4979139;28;20970;-88
2023/12/23 02:19:36;;;;;;;7.43;1.67;;;9.10;98.00;;;;;;4979657;28;20943;-89
2023/12/23 02:22:05;;;;;;;3.03;1.80;;;9.10;98.00;;;;;;4979339;28;20486;-88
2023/12/23 02:24:32;;;;;;;3.77;1.70;;;9.20;98.00;;;;;;4979650;28;20870;-88
2023/12/23 02:27:04;;;;;;;1.70;1.50;;;9.20;98.00;;;;;;4979524;28;20474;-88
2023/12/23 02:29:32;;;;;;;8.00;1.90;;;9.20;98.00;;;;;;4979364;28;20855;-88
2023/12/23 02:32:01;;;;;;;4.10;1.90;;;9.20;98.00;;;;;;4974930;28;20490;-87
2023/12/23 02:34:29;;;;;;;3.07;1.47;;;9.20;98.00;;;;;;4975874;28;20467;-88
2023/12/23 02:36:56;;;;;;;3.30;2.00;;;9.20;98.00;;;;;;4976455;28;20720;-88
2023/12/23 02:39:25;;;;;;;2.33;1.50;;;9.20;98.00;;;;;;4976296;28;20457;-88
2023/12/23 02:41:52;;;;;;;4.83;2.03;;;9.20;98.00;;;;;;4976077;28;20487;-88
2023/12/23 02:44:19;;;;;;;1.87;1.30;;;9.20;98.00;;;;;;4976032;28;20513;-88
2023/12/23 02:46:46;;;;;;;4.87;1.63;;;9.20;98.00;;;;;;4976294;28;20460;-88
2023/12/23 02:49:13;;;;;;;2.00;1.50;;;9.20;98.00;;;;;;4976650;28;20853;-88
2023/12/23 02:51:40;;;;;;;5.03;1.63;;;9.20;98.00;;;;;;4975209;28;20584;-88
2023/12/23 02:54:07;;;;;;;2.87;1.60;;;9.20;98.00;;;;;;4976496;28;20957;-87
2023/12/23 02:56:36;;;;;;;2.63;1.70;;;9.20;98.00;;;;;;4976426;28;20463;-88
2023/12/23 02:59:03;;;;;;;2.67;1.50;;;9.10;98.00;;;;;;4975996;28;20472;-88
2023/12/23 03:01:30;;;;;;;3.53;1.70;;;9.10;98.00;;;;;;4975215;28;20481;-87
2023/12/23 03:03:57;;;;;;;3.23;1.83;;;9.10;98.00;;;;;;4976021;28;20491;-88
2023/12/23 03:06:24;;;;;;;3.63;1.50;;;9.00;98.00;;;;;;4975426;28;20551;-88
2023/12/23 03:08:51;;;;;;;2.07;1.60;;;9.00;98.00;;;;;;4976136;28;20460;-88
2023/12/23 03:11:18;;;;;;;3.77;1.50;;;9.10;98.00;;;;;;4975329;28;20479;-88
2023/12/23 03:13:47;;;;;;;2.60;1.50;;;9.10;98.00;;;;;;4975922;28;20835;-88
2023/12/23 03:16:18;;;;;;;2.80;1.50;;;9.20;98.00;;;;;;4975981;28;20465;-88
2023/12/23 03:18:45;;;;;;;1.93;1.60;;;9.20;98.00;;;;;;4976223;28;20826;-88
2023/12/23 03:21:12;;;;;;;2.47;1.73;;;9.20;98.00;;;;;;4974999;28;20486;-88
2023/12/23 03:23:39;;;;;;;3.87;1.47;;;9.20;98.00;;;;;;4975069;28;21021;-87
2023/12/23 03:26:08;;;;;;;5.37;1.90;;;9.20;98.00;;;;;;4975171;28;20468;-88
2023/12/23 03:28:36;;;;;;;3.30;1.70;;;9.20;98.00;;;;;;4975257;28;20472;-88
2023/12/23 03:31:05;;;;;;;2.93;1.50;;;9.20;98.00;;;;;;4974933;28;20974;-88
2023/12/23 03:33:32;;;;;;;2.70;1.77;;;9.30;98.00;;;;;;4975798;28;20958;-88
2023/12/23 03:35:59;;;;;;;1.63;1.40;;;9.30;98.00;;;;;;4975561;28;20496;-88
2023/12/23 03:38:26;;;;;;;5.47;1.60;;;9.30;98.00;;;;;;4974681;28;20495;-88
2023/12/23 03:40:53;;;;;;;3.23;1.50;;;9.30;98.00;;;;;;4974295;28;20874;-88
2023/12/23 03:43:21;;;;;;;3.60;1.80;;;9.30;98.00;;;;;;4974656;28;20849;-87
2023/12/23 03:45:48;;;;;;;2.57;1.70;;;9.20;98.00;;;;;;4975166;28;20465;-88
2023/12/23 03:48:16;;;;;;;4.00;1.67;;;9.20;98.00;;;;;;4975508;28;20799;-88
2023/12/23 03:50:43;;;;;;;6.10;1.90;;;9.20;98.00;;;;;;4974655;28;20530;-88
2023/12/23 03:53:10;;;;;;;1.93;1.40;;;9.20;98.00;;;;;;4975363;28;20834;-89
2023/12/23 03:55:39;;;;;;;1.57;1.40;;;9.20;98.00;;;;;;4974032;28;20472;-88
2023/12/23 03:58:06;;;;;;;2.03;1.40;;;9.20;98.00;;;;;;4975179;28;20468;-88
2023/12/23 04:00:33;;;;;;;1.60;1.33;;;9.20;98.00;;;;;;4974286;28;20836;-87
2023/12/23 04:03:00;;;;;;;2.20;1.53;;;9.20;98.00;;;;;;4975566;28;20538;-88
2023/12/23 04:05:28;;;;;;;2.60;1.40;;;9.10;98.00;;;;;;4977033;28;20500;-88
2023/12/23 04:07:55;;;;;;;4.90;1.83;;;9.10;98.00;;;;;;4978982;28;20463;-89
2023/12/23 04:10:22;;;;;;;4.40;1.67;;;9.10;98.00;;;;;;4982716;28;20522;-89
2023/12/23 04:12:51;;;;;;;4.00;1.60;;;9.10;98.00;;;;;;4996682;28;20499;-88
2023/12/23 04:15:19;;;;;;;2.70;1.90;;;9.10;98.00;;;;;;4982994;28;20527;-88
2023/12/23 04:17:46;;;;;;;2.97;1.63;;;9.10;98.00;;;;;;4975173;28;20446;-88
2023/12/23 04:20:13;;;;;;;1.63;1.50;;;9.00;98.00;;;;;;4974226;28;20455;-88
2023/12/23 04:22:44;;;;;;;3.33;1.60;;;9.00;98.00;;;;;;4974584;28;20557;-88
2023/12/23 04:25:11;;;;;;;2.37;1.60;;;9.00;98.00;;;;;;4974736;28;20557;-88
2023/12/23 04:27:38;;;;;;;3.40;1.70;;;9.00;98.00;;;;;;4973797;28;20457;-87
2023/12/23 04:30:07;;;;;;;4.10;1.60;;;8.90;98.00;;;;;;4974184;28;20547;-88
2023/12/23 04:32:34;;;;;;;2.67;1.70;;;9.00;98.00;;;;;;4974062;28;20887;-88
2023/12/23 04:35:01;;;;;;;2.70;1.60;;;9.00;98.00;;;;;;4974631;28;20468;-88
2023/12/23 04:37:28;;;;;;;2.30;1.50;;;9.00;98.00;;;;;;4974044;28;20456;-87
2023/12/23 04:39:56;;;;;;;2.03;1.53;;;8.90;98.00;;;;;;4973899;28;20461;-88
2023/12/23 04:42:23;;;;;;;1.50;1.40;;;9.00;98.00;;;;;;4973054;28;20484;-87
2023/12/23 04:44:50;;;;;;;4.17;1.50;;;9.00;98.00;;;;;;4973796;28;20844;-88
2023/12/23 04:47:17;;;;;;;1.40;1.40;;;9.00;98.00;;;;;;4973815;28;20957;-88
2023/12/23 04:49:44;;;;;;;3.10;1.43;;;9.00;98.00;;;;;;4973939;28;21036;-88
2023/12/23 04:52:11;;;;;;;1.90;1.40;;;9.00;98.00;;;;;;4973284;28;20489;-88
2023/12/23 04:54:38;;;;;;;2.80;1.90;;;9.00;98.00;;;;;;4972654;28;20458;-88
2023/12/23 04:57:07;;;;;;;3.00;1.57;;;9.00;98.00;;;;;;4973317;28;20465;-88
2023/12/23 04:59:34;;;;;;;2.23;1.20;;;9.00;98.00;;;;;;4973012;28;20458;-88
2023/12/23 05:02:01;;;;;;;7.60;1.43;;;9.00;98.00;;;;;;4973571;28;21000;-89
2023/12/23 05:04:29;;;;;;;4.13;1.80;;;9.00;98.00;;;;;;4973814;28;20578;-87
2023/12/23 05:06:58;;;;;;;2.13;1.50;;;9.00;98.00;;;;;;4973735;28;20465;-88
2023/12/23 05:09:25;;;;;;;3.40;1.40;;;9.00;98.00;;;;;;4973746;28;20449;-88
2023/12/23 05:11:52;;;;;;;1.90;1.50;;;9.00;98.00;;;;;;4972969;28;20476;-88
2023/12/23 05:14:22;;;;;;;4.83;1.40;;;9.00;98.00;;;;;;4973251;28;20460;-88
2023/12/23 05:16:49;;;;;;;2.60;1.30;;;9.00;98.00;;;;;;4973414;28;20451;-88
2023/12/23 05:19:16;;;;;;;1.57;1.30;;;9.00;98.00;;;;;;4973311;28;20469;-88
2023/12/23 05:21:44;;;;;;;5.40;1.60;;;9.00;98.00;;;;;;4972969;28;20479;-88
2023/12/23 05:24:11;;;;;;;1.50;1.40;;;9.00;98.00;;;;;;4972512;28;20490;-87
2023/12/23 05:26:38;;;;;;;1.90;1.40;;;9.00;98.00;;;;;;4973813;28;20461;-88
2023/12/23 05:29:05;;;;;;;3.53;1.33;;;9.00;98.00;;;;;;4973506;28;20464;-87
2023/12/23 05:31:34;;;;;;;1.40;1.33;;;9.10;98.00;;;;;;4972402;28;20589;-88
2023/12/23 05:34:01;;;;;;;1.50;1.20;;;9.10;98.00;;;;;;4973484;28;20458;-88
2023/12/23 05:36:28;;;;;;;1.73;1.57;;;9.10;98.00;;;;;;4973536;28;20515;-88
2023/12/23 05:38:55;;;;;;;1.97;1.33;;;9.20;98.00;;;;;;4973515;28;20469;-88
2023/12/23 05:41:22;;;;;;;1.90;1.40;;;9.20;98.00;;;;;;4972911;28;20946;-88
2023/12/23 05:43:49;;;;;;;2.40;1.30;;;9.20;98.00;;;;;;4973569;28;20534;-88
2023/12/23 05:46:16;;;;;;;2.03;1.37;;;9.20;98.00;;;;;;4973051;28;20471;-88
2023/12/23 05:48:45;;;;;;;1.90;1.33;;;9.10;98.00;;;;;;4973631;28;20975;-88
2023/12/23 05:51:12;;;;;;;1.43;1.33;;;9.10;98.00;;;;;;4972514;28;20488;-88
2023/12/23 05:53:39;;;;;;;2.07;1.20;;;9.20;98.00;;;;;;4973571;28;20459;-88
2023/12/23 05:56:07;;;;;;;1.30;1.20;;;9.20;98.00;;;;;;4973533;28;20452;-88
2023/12/23 05:58:34;;;;;;;1.50;1.40;;;9.20;98.00;;;;;;4973387;28;20548;-88
2023/12/23 06:01:01;;;;;;;1.43;1.10;;;9.20;98.00;;;;;;4972242;28;20488;-88
2023/12/23 06:03:28;;;;;;;2.30;1.40;;;9.20;98.00;;;;;;4973218;28;20451;-88
2023/12/23 06:05:57;;;;;;;1.47;1.40;;;9.10;98.00;;;;;;4975449;28;20481;-88
2023/12/23 06:08:24;;;;;;;1.37;1.30;;;9.00;98.00;;;;;;4976998;28;21110;-88
2023/12/23 06:10:51;;;;;;;2.07;1.13;;;9.00;98.00;;;;;;4976208;28;20468;-88
2023/12/23 06:13:18;;;;;;;1.23;1.10;;;8.90;98.00;;;;;;4976984;28;20463;-87
2023/12/23 06:15:45;;;;;;;1.77;1.33;;;8.80;98.00;;;;;;4976666;28;20464;-88
2023/12/23 06:18:13;;;;;;;2.47;1.47;;;8.70;98.00;;;;;;4976250;28;20469;-88
2023/12/23 06:20:40;;;;;;;2.43;1.20;;;8.70;98.00;;;;;;4976185;28;20912;-88
2023/12/23 06:23:08;;;;;;;1.87;1.20;;;8.60;98.00;;;;;;4976978;28;20473;-88
2023/12/23 06:25:35;;;;;;;1.27;1.10;;;8.60;98.00;;;;;;4976686;28;20486;-88
2023/12/23 06:28:02;;;;;;;1.10;1.00;;;8.60;98.00;;;;;;4976864;28;20441;-88
2023/12/23 06:30:29;;;;;;;1.87;1.10;;;8.60;98.00;;;;;;4975391;28;20451;-88
2023/12/23 06:32:56;;;;;;;1.40;1.10;;;8.70;98.00;;;;;;4977654;28;20549;-87
2023/12/23 06:35:24;;;;;;;1.63;1.10;;;8.70;98.00;;;;;;4980751;28;20484;-87
2023/12/23 06:42:55;;;;;;;1.10;1.00;;;8.60;98.00;;;;;;4954045;29;20478;-64
2023/12/23 06:45:22;;;;;;;2.03;1.00;;;8.60;98.00;;;;;;4955765;28;20490;-65
2023/12/23 06:47:49;;;;;;;1.10;1.03;;;8.60;98.00;;;;;;4955884;28;20465;-65
2023/12/23 06:50:16;;;;;;;1.20;1.00;;;8.60;98.00;;;;;;4955749;28;20461;-65
2023/12/23 06:52:43;;;;;;;1.30;1.20;;;8.60;98.00;;;;;;4955782;28;20804;-65
2023/12/23 06:55:10;;;;;;;1.20;0.97;;;8.50;98.00;;;;;;4938559;29;20467;-65
2023/12/23 06:57:39;;;;;;;1.57;1.00;;;8.50;98.00;;;;;;4955611;28;20451;-65
2023/12/23 07:00:10;;;;;;;1.13;1.00;;;8.50;98.00;;;;;;4955702;29;20453;-64
2023/12/23 07:02:37;;;;;;;1.20;1.00;;;8.40;98.00;;;;;;4955330;29;20727;-63
2023/12/23 07:05:04;;;;;;;1.20;1.00;;;8.50;98.00;;;;;;4938088;29;20486;-63
2023/12/23 07:07:32;;;;;;;1.20;1.10;;;8.40;98.00;;;;;;4954438;29;20470;-63
2023/12/23 07:09:59;;;;;;;1.60;1.00;;;8.40;98.00;;;;;;4955212;29;20453;-63
2023/12/23 07:12:26;;;;;;;1.20;1.00;;;8.40;98.00;;;;;;4954944;29;20461;-63
2023/12/23 07:14:54;;;;;;;2.03;1.00;;;8.40;98.00;;;;;;4955211;29;20844;-63
2023/12/23 07:17:22;;;;;;;1.20;1.00;;;8.40;98.00;;;;;;4954554;28;20463;-63
2023/12/23 07:19:49;;;;;;;1.10;1.10;;;8.40;98.00;;;;;;4938056;29;20467;-63
2023/12/23 07:22:17;;;;;;;1.40;1.10;;;8.40;98.00;;;;;;4956095;28;20831;-63
2023/12/23 07:24:44;;;;;;;1.10;0.90;;;8.40;98.00;;;;;;4974237;28;20488;-63
2023/12/23 07:27:11;;;;;;;1.20;1.10;;;8.40;98.00;;;;;;4974761;28;20470;-63
2023/12/23 07:29:40;;;;;;;1.30;1.00;;;8.40;98.00;;;;;;4974773;28;20450;-63
2023/12/23 07:32:07;;;;;;;1.10;0.97;;;8.50;98.00;;;;;;4974785;28;20503;-63
2023/12/23 07:34:37;;;;;;;4.13;1.20;;;8.50;98.00;;;;;;4974638;28;20536;-63
2023/12/23 07:37:04;;;;;;;1.30;1.00;;;8.50;98.00;;;;;;4974872;28;21069;-63
2023/12/23 07:39:31;;;;;;;1.87;1.10;;;8.50;98.00;;;;;;4974454;28;20465;-63
2023/12/23 07:41:58;;;;;;;1.20;1.00;;;8.60;98.00;;;;;;4957234;28;20468;-63
2023/12/23 07:44:25;;;;;;;1.20;1.00;;;8.50;98.00;;;;;;4957375;28;21007;-63
2023/12/23 07:46:52;;;;;;;1.10;0.90;;;8.60;98.00;;;;;;4974721;28;20462;-63
2023/12/23 07:49:19;;;;;;;2.60;1.00;;;8.60;98.00;;;;;;4974315;28;20951;-63
2023/12/23 07:51:48;;;;;;;1.20;1.00;;;8.60;98.00;;;;;;4974664;28;20449;-63
2023/12/23 07:54:15;;;;;;;1.20;1.00;;;8.60;98.00;;;;;;4973704;28;20513;-63
2023/12/23 07:56:43;;;;;;;2.10;1.13;;;8.60;98.00;;;;;;4974254;28;20799;-63
2023/12/23 07:59:10;;;;;;;1.20;1.10;;;8.70;98.00;;;;;;4974084;28;20453;-63
2023/12/23 08:01:44;;;;;;;1.20;1.10;;;8.70;98.00;;;;;;4974295;28;20490;-63
2023/12/23 08:04:13;;;;;;;1.23;0.97;;;8.70;98.00;;;;;;4974161;28;20515;-63
2023/12/23 08:06:40;;;;;;;1.20;1.00;;;8.70;98.00;;;;;;4956982;28;20499;-63
2023/12/23 08:09:10;;;;;;;1.20;1.00;;;8.60;98.00;;;;;;4974182;28;20458;-63
2023/12/23 08:11:38;;;;;;;1.20;1.10;;;8.70;98.00;;;;;;4974073;28;20556;-63
2023/12/23 08:14:05;;;;;;;1.10;1.00;;;8.80;98.00;;;;;;4974100;28;20462;-63
2023/12/23 08:16:32;;;;;;;1.20;1.07;;;8.80;98.00;;;;;;4974047;28;20457;-63
2023/12/23 08:19:00;;;;;;;2.07;1.30;;;8.90;98.00;;;;;;4974076;28;20452;-64
2023/12/23 08:21:27;;;;;;;1.27;1.10;;;8.90;98.00;;;;;;4957158;28;20890;-63
2023/12/23 08:23:54;;;;;;;1.30;1.10;;;8.90;98.00;;;;;;4973931;28;20821;-63
2023/12/23 08:26:22;;;;;;;1.10;1.00;;;8.90;98.00;;;;;;4973846;28;20497;-64
2023/12/23 08:28:49;;;;;;;1.20;1.10;;;8.90;98.00;;;;;;4973045;28;20468;-64
2023/12/23 08:31:23;;;;;;;1.20;1.03;;;8.90;98.00;;;;;;4974167;28;20447;-63
2023/12/23 08:33:50;;;;;;;1.20;1.20;;;8.90;98.00;;;;;;4973930;28;20460;-63
2023/12/23 08:36:17;;;;;;;1.20;1.10;;;8.90;98.00;;;;;;4973438;28;20464;-63
2023/12/23 08:43:48;;;;;;;1.47;1.00;;;8.80;98.00;;;;;;4971173;28;20481;-63
2023/12/23 08:46:16;;;;;;;1.20;1.00;;;8.90;98.00;;;;;;4972893;28;21001;-63
2023/12/23 08:48:43;;;;;;;1.10;1.00;;;8.90;98.00;;;;;;4972714;28;20449;-63
2023/12/23 08:51:10;;;;;;;1.10;1.00;;;8.90;98.00;;;;;;4972872;28;20458;-63
2023/12/23 08:53:37;;;;;;;1.20;1.20;;;8.80;98.00;;;;;;4972576;28;20463;-63
2023/12/23 08:56:06;;;;;;;1.10;1.10;;;8.90;98.00;;;;;;4972881;28;20487;-63
2023/12/23 08:58:32;;;;;;;1.20;1.10;;;8.80;98.00;;;;;;4972513;28;20452;-63
2023/12/23 09:01:01;;;;;;;1.30;1.10;;;8.80;98.00;;;;;;4955503;28;20477;-65
2023/12/23 09:03:30;;;;;;;1.93;1.20;;;8.80;98.00;;;;;;4938956;28;20479;-63
2023/12/23 09:05:59;;;;;;;1.20;1.10;;;8.80;98.00;;;;;;4962833;28;21028;-63
2023/12/23 09:08:26;;;;;;;1.80;1.13;;;8.80;98.00;;;;;;4972357;28;20869;-63
2023/12/23 09:10:53;;;;;;;1.20;1.17;;;8.80;98.00;;;;;;4972366;28;20529;-63
2023/12/23 09:13:20;;;;;;;1.67;1.10;;;8.80;98.00;;;;;;4973383;28;20459;-64
2023/12/23 09:15:47;;;;;;;1.40;1.10;;;8.80;98.00;;;;;;4972954;28;20612;-64
2023/12/23 09:18:16;;;;;;;1.80;1.10;;;8.80;98.00;;;;;;4973310;28;20949;-63
2023/12/23 09:20:43;;;;;;;1.10;0.97;;;8.80;98.00;;;;;;4968898;28;20452;-63
2023/12/23 09:23:10;;;;;;;1.27;1.13;;;8.80;98.00;;;;;;4972361;28;20460;-63
2023/12/23 09:25:38;;;;;;;1.10;1.00;;;8.80;98.00;;;;;;4955214;28;20486;-63
2023/12/23 09:28:05;;;;;;;1.43;1.20;;;8.80;98.00;;;;;;4971946;28;20463;-63
2023/12/23 09:30:32;;;;;;;1.30;1.10;;;8.80;98.00;;;;;;4955150;28;20464;-63
2023/12/23 09:32:59;;;;;;;1.20;1.10;;;8.80;98.00;;;;;;4972926;28;20532;-64
2023/12/23 09:35:28;;;;;;;1.20;1.10;;;8.80;98.00;;;;;;4972878;28;20465;-63
2023/12/23 09:37:56;;;;;;;1.60;1.10;;;8.90;98.00;;;;;;4955565;28;20979;-63
2023/12/23 09:40:23;;;;;;;1.27;1.10;;;8.90;98.00;;;;;;4974083;28;20553;-64
2023/12/23 09:42:51;;;;;;;1.10;1.00;;;8.80;98.00;;;;;;4976458;28;20461;-63
2023/12/23 09:45:20;;;;;;;1.10;1.00;;;8.80;98.00;;;;;;4976715;28;20799;-63
2023/12/23 09:47:48;;;;;;;1.20;1.10;;;8.90;98.00;;;;;;4959725;28;20453;-64
2023/12/23 09:50:15;;;;;;;1.10;1.00;;;8.90;98.00;;;;;;4976691;28;20515;-63
2023/12/23 09:52:45;;;;;;;1.70;1.17;;;8.90;98.00;;;;;;4976728;28;20463;-63
2023/12/23 09:55:16;;;;;;;1.30;1.20;;;8.90;98.00;;;;;;4959672;28;20455;-63
2023/12/23 09:57:43;;;;;;;1.20;1.10;;;9.00;98.00;;;;;;4976450;28;20464;-63
2023/12/23 10:00:11;;;;;;;1.47;1.10;;;9.00;98.00;;;;;;4976852;28;20798;-63
2023/12/23 10:02:38;;;;;;;1.10;0.90;;;9.00;98.00;;;;;;4976700;28;20453;-64
2023/12/23 10:05:06;;;;;;;1.20;1.00;;;9.00;98.00;;;;;;4976434;28;20460;-63
2023/12/23 10:07:33;;;;;;;1.20;1.00;;;9.00;98.00;;;;;;4976299;28;20504;-64
2023/12/23 10:10:01;;;;;;;1.20;1.00;;;9.00;98.00;;;;;;4976496;28;20801;-63
2023/12/23 10:12:28;;;;;;;1.10;1.00;;;9.00;98.00;;;;;;4976250;28;20459;-63
2023/12/23 10:14:55;;;;;;;1.10;1.10;;;9.00;98.00;;;;;;4976221;28;20939;-63
2023/12/23 10:17:22;;;;;;;1.10;1.03;;;9.10;98.00;;;;;;4976400;28;20460;-63
2023/12/23 10:19:52;;;;;;;1.10;1.00;;;9.20;98.00;;;;;;4973244;28;20508;-63
2023/12/23 10:22:19;;;;;;;2.30;1.20;;;9.20;98.00;;;;;;4963021;28;20539;-60
2023/12/23 10:24:50;;;;;;;1.10;0.93;;;9.20;98.00;;;;;;5170090;23;20495;-64
2023/12/23 10:29:52;;;;;;;1.30;1.10;;;9.20;98.00;;;;;;4974617;28;21045;-64
2023/12/23 10:32:24;;;;;;;1.20;1.10;;;9.20;98.00;;;;;;4975874;28;20805;-64
2023/12/23 10:34:55;;;;;;;1.50;1.20;;;9.20;98.00;;;;;;4974403;28;20550;-64
2023/12/23 10:37:25;;;;;;;1.20;1.10;;;9.20;98.00;;;;;;4975834;28;20824;-64
2023/12/23 10:39:56;;;;;;;1.20;1.00;;;9.30;98.00;;;;;;4975885;28;20550;-64
2023/12/23 10:42:25;;;;;;;1.20;1.10;;;9.30;98.00;;;;;;4974786;28;20456;-63
2023/12/23 10:44:55;;;;;;;1.20;1.10;;;9.30;98.00;;;;;;4975644;28;20978;-61
2023/12/23 10:47:24;;;;;;;1.37;1.10;;;9.30;98.00;;;;;;4975503;28;20491;-64
2023/12/23 10:49:52;;;;;;;1.40;1.10;;;9.40;98.00;;;;;;4975294;28;20453;-64
2023/12/23 10:52:21;;;;;;;3.93;1.43;;;9.50;98.00;;;;;;4974400;28;20461;-64
2023/12/23 10:54:49;;;;;;;1.10;1.00;;;9.50;98.00;;;;;;4972108;28;20471;-63
2023/12/23 10:57:17;;;;;;;1.10;1.00;;;9.50;98.00;;;;;;4974487;28;20464;-64
2023/12/23 10:59:44;;;;;;;1.20;1.00;;;9.50;98.00;;;;;;4989589;28;20597;-64
2023/12/23 11:02:17;;;;;;;1.20;1.00;;;9.40;98.00;;;;;;4975600;28;21113;-64
2023/12/23 11:04:47;;;;;;;1.20;1.10;;;9.40;98.00;;;;;;4975473;28;20815;-63
2023/12/23 11:07:17;;;;;;;1.10;1.00;;;9.40;98.00;;;;;;4974171;28;20527;-63
2023/12/23 11:09:47;;;;;;;1.20;1.00;;;9.40;98.00;;;;;;4975327;28;20464;-63
2023/12/23 11:12:17;;;;;;;1.20;1.00;;;9.40;98.00;;;;;;4975282;28;20501;-63
2023/12/23 11:14:44;;;;;;;1.17;1.00;;;9.40;98.00;;;;;;4975186;28;20484;-64
2023/12/23 11:17:24;;;;;;;1.20;1.03;;;9.30;98.00;;;;;;4974882;28;20456;-63
2023/12/23 11:19:55;;;;;;;1.10;1.00;;;9.30;98.00;;;;;;4975066;28;20492;-64
2023/12/23 11:22:25;;;;;;;1.10;1.00;;;9.30;98.00;;;;;;4974995;28;20455;-64
2023/12/23 11:24:52;;;;;;;1.10;1.10;;;9.30;98.00;;;;;;4974758;28;20559;-63
2023/12/23 11:27:33;;;;;;;1.10;1.00;;;9.30;98.00;;;;;;4974789;28;20853;-65
2023/12/23 11:32:43;;;;;;;1.47;1.10;;;9.30;98.00;;;;;;4972326;28;20483;-63
2023/12/23 11:35:12;;;;;;;1.10;1.00;;;9.30;98.00;;;;;;4974329;28;20464;-64
2023/12/23 11:37:50;;;;;;;1.33;1.10;;;9.20;98.00;;;;;;4974167;28;20469;-64
2023/12/23 11:40:18;;;;;;;1.20;1.10;;;9.20;98.00;;;;;;4974400;28;20452;-64
2023/12/23 11:42:48;;;;;;;1.10;1.00;;;9.20;98.00;;;;;;4973362;28;20476;-63
2023/12/23 11:45:16;;;;;;;1.10;0.90;;;9.20;98.00;;;;;;4973368;28;20462;-63
2023/12/23 11:47:45;;;;;;;1.30;1.10;;;9.20;98.00;;;;;;4974428;28;20485;-64
2023/12/23 11:50:12;;;;;;;1.10;1.00;;;9.20;98.00;;;;;;4974412;28;20535;-63
2023/12/23 11:52:40;;;;;;;1.10;1.00;;;9.20;98.00;;;;;;4974291;28;20491;-64
2023/12/23 11:55:08;;;;;;;1.20;1.10;;;9.20;98.00;;;;;;4973836;28;20959;-64
2023/12/23 11:57:36;;;;;;;1.20;1.10;;;9.30;98.00;;;;;;4974387;28;20847;-63
2023/12/23 12:00:05;;;;;;;1.20;1.00;;;9.20;98.00;;;;;;4974377;28;20460;-63
2023/12/23 12:02:32;;;;;;;1.20;0.97;;;9.20;98.00;;;;;;4974059;28;20461;-62
2023/12/23 12:05:00;;;;;;;1.13;1.03;;;9.20;98.00;;;;;;4974278;28;20551;-63
2023/12/23 12:07:27;;;;;;;1.20;1.00;;;9.20;98.00;;;;;;4973905;28;20493;-64
2023/12/23 12:09:55;;;;;;;1.20;1.10;;;9.20;98.00;;;;;;4973021;28;20463;-64
2023/12/23 12:12:22;;;;;;;1.20;1.10;;;9.30;98.00;;;;;;5048976;23;20494;-85
2023/12/23 12:14:50;;;;;;;1.20;1.00;;;9.20;98.00;;;;;;4973909;28;20945;-86
2023/12/23 12:17:17;;;;;;;1.67;1.10;;;9.20;98.00;;;;;;4974707;28;20474;-85
2023/12/23 12:19:44;;;;;;;1.20;1.10;;;9.30;98.00;;;;;;4974620;28;20485;-85
2023/12/23 12:22:13;;;;;;;1.10;1.00;;;9.30;98.00;;;;;;4973353;28;20484;-87
2023/12/23 12:24:41;;;;;;;1.30;1.10;;;9.30;98.00;;;;;;4973221;28;20457;-86
2023/12/23 12:27:08;;;;;;;1.10;1.00;;;9.30;98.00;;;;;;4975405;28;20483;-86
2023/12/23 12:29:35;;;;;;;1.20;1.10;;;9.30;98.00;;;;;;4983132;28;21163;-87
2023/12/23 12:32:03;;;;;;;1.33;1.10;;;9.40;98.00;;;;;;4975462;28;20574;-86
2023/12/23 12:34:30;;;;;;;1.87;1.30;;;9.40;98.00;;;;;;4974879;28;20600;-86
2023/12/23 12:36:58;;;;;;;1.23;1.00;;;9.50;98.00;;;;;;4974680;28;21086;-86
2023/12/23 12:39:28;;;;;;;1.20;1.10;;;9.50;98.00;;;;;;4978421;28;20520;-86
2023/12/23 12:41:55;;;;;;;1.50;1.07;;;9.50;98.00;;;;;;4978037;28;20488;-86
2023/12/23 12:44:22;;;;;;;1.10;1.00;;;9.50;98.00;;;;;;4974964;28;20483;-86
2023/12/23 12:46:58;;;;;;;1.20;1.13;;;9.60;98.00;;;;;;4974255;28;20481;-86
2023/12/23 12:49:26;;;;;;;1.20;1.00;;;9.50;98.00;;;;;;4974541;28;20464;-87
2023/12/23 12:51:53;;;;;;;1.10;1.00;;;9.60;98.00;;;;;;4974010;28;20578;-86
2023/12/23 12:54:23;;;;;;;1.20;1.10;;;9.70;98.00;;;;;;4973716;28;20479;-86
2023/12/23 12:56:52;;;;;;;1.10;1.00;;;9.70;98.00;;;;;;4973471;28;20467;-86
2023/12/23 12:59:19;;;;;;;1.20;1.00;;;9.70;98.00;;;;;;4972542;28;20492;-86
2023/12/23 13:01:47;;;;;;;1.20;1.07;;;9.70;98.00;;;;;;4972441;28;20477;-86
2023/12/23 13:04:14;;;;;;;1.10;1.00;;;9.70;98.00;;;;;;4973464;28;20460;-86
2023/12/23 13:06:42;;;;;;;1.10;0.97;;;9.80;98.00;;;;;;4973089;28;20501;-86
2023/12/23 13:09:09;;;;;;;1.10;1.00;;;9.70;98.00;;;;;;4973012;28;20466;-87
2023/12/23 13:11:37;;;;;;;1.43;1.10;;;9.80;98.00;;;;;;4972651;28;20935;-87
2023/12/23 13:14:05;;;;;;;1.20;1.00;;;9.80;98.00;;;;;;4972433;28;20463;-87
2023/12/23 13:16:32;;;;;;;1.13;1.00;;;9.70;98.00;;;;;;4977285;28;20459;-87